Rockland, ME

4:13 PM EDT on July 23, 2017 (GMT -0400)
Knox County Regional

Weather History for KRKD - December, 2012

Change the Weather History Date:

Friday, December 28, 2012

  Actual Average Record
Temperature  
Mean Temperature 26 °F -  
Max Temperature 32 °F 32 °F 51 °F (2008)
Min Temperature 21 °F 18 °F 3 °F (2004)
Degree Days  
Heating Degree Days 38    
Moisture  
Dew Point 21 °F    
Average Humidity 76    
Maximum Humidity 93    
Minimum Humidity 60    
Precipitation  
Precipitation 0.00 in - - ()
Sea Level Pressure  
Sea Level Pressure 29.75 in    
Wind  
Wind Speed 11 mph (NW)    
Max Wind Speed 20 mph    
Max Gust Speed 29 mph    
Visibility 9 miles    
Events      
Averages and records for this station are not official NWS values.
T = Trace of Precipitation, MM = Missing Value Source: NWS Daily Summary

Daily Weather History Graph

Daily Weather History Graph

Search for Another Location

Airport or City:

Trip Planner

Search our weather history database for the weather conditions in past years. The results will help you decide how hot, cold, wet, or windy it might be!

Date:

Astronomy

Dec. 28, 2012 Rise Set
Actual Time 7:10 AM EST 4:05 PM EST
Civil Twilight 6:37 AM EST 4:38 PM EST
Nautical Twilight 6:01 AM EST 5:15 PM EST
Astronomical Twilight 5:26 AM EST 5:50 PM EST
Moon 4:41 PM EST (12/28) 7:00 AM EST (12/28)
Length of Visible Light 10h 01m
Length of Day
8h 54m
Full, 100% of the Moon is Illuminated
Dec 28
Full
Jan 4
Last Quarter
Jan 11
New
Jan 18
First Quarter
Jan 26
Full

Hourly Weather History & Observations

Time (EST) Temp. Windchill Dew Point Humidity Pressure Visibility Wind Dir Wind Speed Gust Speed Precip Events Conditions
12:15 AM 28.4 °F 18.5 °F 24.8 °F 86% 29.47 in 2.0 mi NNW 11.5 mph 23.0 mph N/A   Overcast
12:35 AM 28.4 °F 18.5 °F 24.8 °F 86% 29.48 in 1.2 mi North 11.5 mph 21.9 mph N/A   Overcast
12:55 AM 28.4 °F 19.1 °F 24.8 °F 86% 29.49 in 1.5 mi NNW 10.4 mph 28.8 mph N/A   Overcast
1:15 AM 28.4 °F 19.1 °F 24.8 °F 86% 29.50 in 2.5 mi North 10.4 mph 24.2 mph N/A   Overcast
1:35 AM 26.6 °F 17.5 °F 24.8 °F 93% 29.51 in 1.2 mi NNW 9.2 mph 20.7 mph N/A   Overcast
2:15 AM 28.4 °F 19.7 °F 24.8 °F 86% 29.51 in 5.0 mi NNW 9.2 mph 19.6 mph N/A   Scattered Clouds
2:35 AM 28.4 °F 19.7 °F 24.8 °F 86% 29.53 in 10.0 mi NNW 9.2 mph 19.6 mph N/A   Partly Cloudy
2:55 AM 28.4 °F 18.5 °F 21.2 °F 74% 29.54 in 10.0 mi NNW 11.5 mph 20.7 mph N/A   Mostly Cloudy
3:15 AM 28.4 °F 19.1 °F 24.8 °F 86% 29.54 in 10.0 mi NNW 10.4 mph 25.3 mph N/A   Overcast
3:35 AM 28.4 °F 19.7 °F 24.8 °F 86% 29.54 in 10.0 mi NNW 9.2 mph 16.1 mph N/A   Overcast
3:55 AM 28.4 °F 19.1 °F 24.8 °F 86% 29.55 in 10.0 mi NNW 10.4 mph 24.2 mph N/A   Mostly Cloudy
4:15 AM 28.4 °F 19.1 °F 24.8 °F 86% 29.55 in 6.0 mi NW 10.4 mph 18.4 mph N/A   Mostly Cloudy
4:55 AM 26.6 °F 16.2 °F 24.8 °F 93% 29.59 in 2.5 mi WNW 11.5 mph 17.3 mph N/A   Overcast
5:15 AM 26.6 °F 14.7 °F 24.8 °F 93% 29.60 in 2.5 mi NW 15.0 mph 27.6 mph N/A   Overcast
5:35 AM 26.6 °F 16.2 °F 23.0 °F 86% 29.61 in 3.0 mi WNW 11.5 mph 21.9 mph N/A   Scattered Clouds
5:55 AM 26.6 °F 14.3 °F 24.8 °F 93% 29.62 in 3.0 mi WNW 16.1 mph 20.7 mph N/A   Clear
6:15 AM 26.6 °F 14.3 °F 23.0 °F 86% 29.63 in 6.0 mi WNW 16.1 mph 23.0 mph N/A   Clear
6:35 AM 26.6 °F 13.1 °F 23.0 °F 86% 29.63 in 10.0 mi WNW 19.6 mph 24.2 mph N/A   Clear
6:55 AM 26.6 °F 13.8 °F 23.0 °F 86% 29.64 in 10.0 mi WNW 17.3 mph 25.3 mph N/A   Partly Cloudy
7:35 AM 26.6 °F 13.4 °F 21.2 °F 80% 29.67 in 10.0 mi WNW 18.4 mph 26.5 mph N/A   Mostly Cloudy
7:55 AM 26.6 °F 14.7 °F 21.2 °F 80% 29.68 in 10.0 mi WNW 15.0 mph 25.3 mph N/A   Overcast
8:15 AM 26.6 °F 16.2 °F 21.2 °F 80% 29.69 in 9.0 mi NW 11.5 mph 23.0 mph N/A   Overcast
8:55 AM 26.6 °F 16.8 °F 21.2 °F 80% 29.72 in 10.0 mi NNW 10.4 mph 19.6 mph N/A   Mostly Cloudy
9:15 AM 26.6 °F 17.5 °F 19.4 °F 74% 29.73 in 10.0 mi NW 9.2 mph 17.3 mph N/A   Scattered Clouds
9:35 AM 28.4 °F 19.1 °F 19.4 °F 69% 29.75 in 7.0 mi NW 10.4 mph 17.3 mph N/A   Mostly Cloudy
9:55 AM 28.4 °F 17.5 °F 21.2 °F 74% 29.75 in 10.0 mi NW 13.8 mph 21.9 mph N/A   Mostly Cloudy
10:15 AM 28.4 °F 19.1 °F 19.4 °F 69% 29.75 in 10.0 mi NW 10.4 mph 19.6 mph N/A   Partly Cloudy
10:35 AM 30.2 °F 22.6 °F 21.2 °F 69% 29.75 in 10.0 mi NW 8.1 mph 23.0 mph N/A   Clear
10:55 AM 30.2 °F 21.9 °F 21.2 °F 69% 29.76 in 10.0 mi NW 9.2 mph 17.3 mph N/A   Clear
11:15 AM 30.2 °F 19.3 °F 21.2 °F 69% 29.76 in 10.0 mi NW 15.0 mph 20.7 mph N/A   Clear
11:35 AM 30.2 °F 18.9 °F 23.0 °F 75% 29.75 in 10.0 mi NNW 16.1 mph 25.3 mph N/A   Partly Cloudy
11:55 AM 30.2 °F 22.6 °F 21.2 °F 69% 29.75 in 10.0 mi NNW 8.1 mph 21.9 mph N/A   Clear
12:15 PM 30.2 °F 20.2 °F 21.2 °F 69% 29.75 in 10.0 mi NW 12.7 mph 24.2 mph N/A   Clear
12:35 PM 32.0 °F 21.6 °F 21.2 °F 64% 29.75 in 10.0 mi NW 15.0 mph 26.5 mph N/A   Clear
12:55 PM 30.2 °F 21.3 °F 21.2 °F 69% 29.76 in 10.0 mi NW 10.4 mph 27.6 mph N/A   Clear
1:15 PM 32.0 °F 23.0 °F 21.2 °F 64% 29.77 in 10.0 mi NW 11.5 mph 24.2 mph N/A   Clear
1:35 PM 32.0 °F 24.8 °F 21.2 °F 64% 29.78 in 10.0 mi NW 8.1 mph 19.6 mph N/A   Clear
1:55 PM 32.0 °F 24.2 °F 19.4 °F 60% 29.79 in 10.0 mi NW 9.2 mph 20.7 mph N/A   Clear
2:15 PM 32.0 °F 22.5 °F 19.4 °F 60% 29.80 in 10.0 mi NW 12.7 mph 19.6 mph N/A   Clear
2:35 PM 32.0 °F 23.0 °F 19.4 °F 60% 29.81 in 10.0 mi NW 11.5 mph 18.4 mph N/A   Clear
2:55 PM 32.0 °F 25.6 °F 19.4 °F 60% 29.82 in 10.0 mi NW 6.9 mph - N/A   Clear
3:15 PM 32.0 °F 26.4 °F 21.2 °F 64% 29.82 in 10.0 mi NNW 5.8 mph - N/A   Clear
3:35 PM 32.0 °F 26.4 °F 19.4 °F 60% 29.82 in 10.0 mi NW 5.8 mph - N/A   Clear
3:55 PM 30.2 °F 26.7 °F 19.4 °F 64% 29.83 in 10.0 mi NW 3.5 mph - N/A   Clear
4:15 PM 30.2 °F 26.7 °F 19.4 °F 64% 29.83 in 10.0 mi NW 3.5 mph - N/A   Clear
4:35 PM 28.4 °F 21.2 °F 19.4 °F 69% 29.84 in 10.0 mi WNW 6.9 mph - N/A   Clear
4:55 PM 28.4 °F 19.1 °F 19.4 °F 69% 29.85 in 10.0 mi WNW 10.4 mph - N/A   Clear
5:35 PM 26.6 °F 16.8 °F 19.4 °F 74% 29.86 in 10.0 mi West 10.4 mph - N/A   Clear
5:55 PM 26.6 °F 19.1 °F 21.2 °F 80% 29.87 in 10.0 mi WNW 6.9 mph - N/A   Clear
6:15 PM 26.6 °F 16.8 °F 19.4 °F 74% 29.88 in 10.0 mi West 10.4 mph - N/A   Clear
6:35 PM 26.6 °F 17.5 °F 19.4 °F 74% 29.89 in 10.0 mi WNW 9.2 mph - N/A   Clear
6:55 PM 24.8 °F 15.3 °F 17.6 °F 74% 29.90 in 10.0 mi West 9.2 mph - N/A   Clear
7:15 PM 23.0 °F 11.1 °F 17.6 °F 80% 29.90 in 10.0 mi West 12.7 mph - N/A   Clear
7:35 PM 24.8 °F 12.9 °F 17.6 °F 74% 29.90 in 10.0 mi West 13.8 mph - N/A   Clear
8:15 PM 24.8 °F 12.4 °F 19.4 °F 80% 29.90 in 10.0 mi West 15.0 mph - N/A   Clear
8:35 PM 24.8 °F 12.4 °F 17.6 °F 74% 29.90 in 10.0 mi West 15.0 mph - N/A   Clear
8:55 PM 24.8 °F 14.6 °F 17.6 °F 74% 29.90 in 10.0 mi WNW 10.4 mph 18.4 mph N/A   Clear
9:15 PM 24.8 °F 14.0 °F 17.6 °F 74% 29.90 in 10.0 mi WNW 11.5 mph - N/A   Clear
9:35 PM 24.8 °F 12.9 °F 17.6 °F 74% 29.91 in 10.0 mi WNW 13.8 mph - N/A   Clear
9:55 PM 23.0 °F 13.9 °F 17.6 °F 80% 29.92 in 10.0 mi WNW 8.1 mph - N/A   Clear
10:15 PM 23.0 °F 13.1 °F 15.8 °F 74% 29.94 in 10.0 mi West 9.2 mph - N/A   Clear
10:35 PM 24.8 °F 16.1 °F 17.6 °F 74% 29.94 in 10.0 mi WNW 8.1 mph - N/A   Clear
10:55 PM 23.0 °F 15.8 °F 15.8 °F 74% 29.94 in 10.0 mi NW 5.8 mph - N/A   Clear
11:15 PM 23.0 °F - 15.8 °F 74% 29.94 in 10.0 mi Calm Calm - N/A   Clear
11:35 PM 21.2 °F - 15.8 °F 80% 29.93 in 10.0 mi Calm Calm - N/A   Clear
11:55 PM 21.2 °F - 15.8 °F 80% 29.94 in 10.0 mi Calm Calm - N/A   Clear